Terminal Aerodrome Forecast
Issued by NWS Wilmington, NC

Home | Current Version | Previous Version | Text Only | Print | Product List | Glossary On
Versions: 1 2 3 4 5 6 7 8 9 10 11 12 13 14 15 16 17 18 19 20 21
000
FTUS42 KILM 261751 CCA
TAFLBT
TAF COR
KLBT 261751Z 2618/2718 21011G16KT P6SM BKN035 OVC080
     FM270400 23008KT 3SM -SHRA BR SCT015 BKN025
      TEMPO 2708/2712 1SM TSRA SCT007 BKN012CB
     FM271500 34011G16KT 2SM -RA BR OVC010=

USA.gov is the U.S. government's official web portal to all federal, state and local government web resources and services.